sensor_id;sensor_type;location;lat;lon;timestamp;pressure;altitude;pressure_sealevel;temperature;humidity
56241;BME280;42155;53.096;23.226;2022-07-05T00:01:13;100013.53;;;17.50;74.99
56241;BME280;42155;53.096;23.226;2022-07-05T00:03:14;99999.59;;;17.46;74.69
56241;BME280;42155;53.096;23.226;2022-07-05T00:05:14;100003.13;;;17.47;74.63
56241;BME280;42155;53.096;23.226;2022-07-05T00:07:14;100004.13;;;17.46;74.42
56241;BME280;42155;53.096;23.226;2022-07-05T00:09:15;100010.00;;;17.41;74.68
56241;BME280;42155;53.096;23.226;2022-07-05T00:11:15;100000.44;;;17.39;74.78
56241;BME280;42155;53.096;23.226;2022-07-05T00:13:16;99991.06;;;17.35;74.50
56241;BME280;42155;53.096;23.226;2022-07-05T00:15:16;99989.00;;;17.28;74.31
56241;BME280;42155;53.096;23.226;2022-07-05T00:17:17;99997.44;;;17.34;74.57
56241;BME280;42155;53.096;23.226;2022-07-05T00:19:18;99995.72;;;17.33;74.52
56241;BME280;42155;53.096;23.226;2022-07-05T00:21:18;100009.00;;;17.34;74.52
56241;BME280;42155;53.096;23.226;2022-07-05T00:23:19;100003.78;;;17.33;74.58
56241;BME280;42155;53.096;23.226;2022-07-05T00:25:19;100010.66;;;17.27;74.78
56241;BME280;42155;53.096;23.226;2022-07-05T00:27:20;100016.19;;;17.25;74.81
56241;BME280;42155;53.096;23.226;2022-07-05T00:29:20;100019.88;;;17.24;74.76
56241;BME280;42155;53.096;23.226;2022-07-05T00:31:21;100011.16;;;17.22;74.45
56241;BME280;42155;53.096;23.226;2022-07-05T00:33:21;100014.84;;;17.21;74.85
56241;BME280;42155;53.096;23.226;2022-07-05T00:35:21;100009.47;;;17.21;75.19
56241;BME280;42155;53.096;23.226;2022-07-05T00:37:22;100011.16;;;17.22;74.78
56241;BME280;42155;53.096;23.226;2022-07-05T00:39:22;100009.47;;;17.21;74.63
56241;BME280;42155;53.096;23.226;2022-07-05T00:41:23;100020.88;;;17.15;74.78
56241;BME280;42155;53.096;23.226;2022-07-05T00:43:23;100032.44;;;17.16;75.38
56241;BME280;42155;53.096;23.226;2022-07-05T00:45:24;100022.84;;;17.13;75.22
56241;BME280;42155;53.096;23.226;2022-07-05T00:47:24;100021.50;;;17.09;75.11
56241;BME280;42155;53.096;23.226;2022-07-05T00:49:25;100029.22;;;17.12;75.17
56241;BME280;42155;53.096;23.226;2022-07-05T00:51:29;100022.34;;;17.10;74.83
56241;BME280;42155;53.096;23.226;2022-07-05T00:53:30;100023.53;;;17.07;75.34
56241;BME280;42155;53.096;23.226;2022-07-05T00:55:30;100026.38;;;17.05;75.41
56241;BME280;42155;53.096;23.226;2022-07-05T00:57:32;100000.03;;;16.93;75.38
56241;BME280;42155;53.096;23.226;2022-07-05T00:59:34;100027.00;;;16.99;75.87
56241;BME280;42155;53.096;23.226;2022-07-05T01:01:34;100031.84;;;16.96;76.62
56241;BME280;42155;53.096;23.226;2022-07-05T01:03:35;100028.16;;;16.89;77.20
56241;BME280;42155;53.096;23.226;2022-07-05T01:05:35;100031.84;;;16.88;76.64
56241;BME280;42155;53.096;23.226;2022-07-05T01:07:36;100026.50;;;16.88;76.35
56241;BME280;42155;53.096;23.226;2022-07-05T01:09:36;100027.16;;;16.90;77.21
56241;BME280;42155;53.096;23.226;2022-07-05T01:11:38;100028.81;;;16.91;77.51
56241;BME280;42155;53.096;23.226;2022-07-05T01:13:38;100036.03;;;16.90;77.09
56241;BME280;42155;53.096;23.226;2022-07-05T01:15:40;100031.69;;;16.89;76.43
56241;BME280;42155;53.096;23.226;2022-07-05T01:17:41;100026.31;;;16.89;76.52
56241;BME280;42155;53.096;23.226;2022-07-05T01:19:41;100032.50;;;16.90;75.83
56241;BME280;42155;53.096;23.226;2022-07-05T01:21:44;100028.00;;;16.90;76.24
56241;BME280;42155;53.096;23.226;2022-07-05T01:23:46;100032.50;;;16.90;76.13
56241;BME280;42155;53.096;23.226;2022-07-05T01:25:48;100037.03;;;16.89;75.88
56241;BME280;42155;53.096;23.226;2022-07-05T01:27:49;100038.19;;;16.87;75.86
56241;BME280;42155;53.096;23.226;2022-07-05T01:29:50;100033.84;;;16.86;75.64
56241;BME280;42155;53.096;23.226;2022-07-05T01:31:50;100040.53;;;16.82;75.57
56241;BME280;42155;53.096;23.226;2022-07-05T01:33:51;100035.16;;;16.82;75.76
56241;BME280;42155;53.096;23.226;2022-07-05T01:35:51;100026.44;;;16.79;75.60
56241;BME280;42155;53.096;23.226;2022-07-05T01:37:52;100026.25;;;16.73;75.72
56241;BME280;42155;53.096;23.226;2022-07-05T01:39:53;100033.47;;;16.80;75.78
56241;BME280;42155;53.096;23.226;2022-07-05T01:41:53;100038.69;;;16.82;75.99
56241;BME280;42155;53.096;23.226;2022-07-05T01:43:54;100039.84;;;16.79;75.74
56241;BME280;42155;53.096;23.226;2022-07-05T01:45:56;100032.13;;;16.76;75.84
56241;BME280;42155;53.096;23.226;2022-07-05T01:47:57;100039.34;;;16.76;75.93
56241;BME280;42155;53.096;23.226;2022-07-05T01:49:59;100038.50;;;16.75;75.54
56241;BME280;42155;53.096;23.226;2022-07-05T01:52:06;100036.47;;;16.77;75.31
56241;BME280;42155;53.096;23.226;2022-07-05T01:54:07;100036.81;;;16.74;75.77
56241;BME280;42155;53.096;23.226;2022-07-05T01:56:07;100033.97;;;16.76;75.90
56241;BME280;42155;53.096;23.226;2022-07-05T01:58:08;100035.81;;;16.75;75.75
56241;BME280;42155;53.096;23.226;2022-07-05T02:00:09;100037.19;;;16.79;75.70
56241;BME280;42155;53.096;23.226;2022-07-05T02:02:10;100047.59;;;16.83;75.80
56241;BME280;42155;53.096;23.226;2022-07-05T02:04:10;100047.59;;;16.83;75.84
56241;BME280;42155;53.096;23.226;2022-07-05T02:06:11;100058.78;;;16.86;76.64
56241;BME280;42155;53.096;23.226;2022-07-05T02:08:12;100058.47;;;16.89;77.18
56241;BME280;42155;53.096;23.226;2022-07-05T02:10:13;100060.00;;;16.92;77.33
56241;BME280;42155;53.096;23.226;2022-07-05T02:12:13;100063.06;;;16.97;77.43
56241;BME280;42155;53.096;23.226;2022-07-05T02:14:14;100073.13;;;17.03;77.29
56241;BME280;42155;53.096;23.226;2022-07-05T02:16:14;100071.44;;;17.02;77.72
56241;BME280;42155;53.096;23.226;2022-07-05T02:18:15;100077.81;;;17.01;78.09
56241;BME280;42155;53.096;23.226;2022-07-05T02:20:15;100085.38;;;17.05;78.29
56241;BME280;42155;53.096;23.226;2022-07-05T02:22:16;100085.84;;;17.09;79.02
56241;BME280;42155;53.096;23.226;2022-07-05T02:24:16;100083.88;;;17.11;78.63
56241;BME280;42155;53.096;23.226;2022-07-05T02:26:16;100087.75;;;17.17;78.89
56241;BME280;42155;53.096;23.226;2022-07-05T02:28:17;100088.25;;;17.20;78.55
56241;BME280;42155;53.096;23.226;2022-07-05T02:30:18;100089.63;;;17.24;78.36
56241;BME280;42155;53.096;23.226;2022-07-05T02:32:18;100086.09;;;17.32;78.36
56241;BME280;42155;53.096;23.226;2022-07-05T02:34:19;100086.63;;;17.36;78.28
56241;BME280;42155;53.096;23.226;2022-07-05T02:36:20;100089.13;;;17.37;78.17
56241;BME280;42155;53.096;23.226;2022-07-05T02:38:20;100089.66;;;17.41;78.23
56241;BME280;42155;53.096;23.226;2022-07-05T02:40:20;100089.66;;;17.41;78.27
56241;BME280;42155;53.096;23.226;2022-07-05T02:42:21;100084.78;;;17.44;77.99
56241;BME280;42155;53.096;23.226;2022-07-05T02:44:21;100088.31;;;17.45;78.04
56241;BME280;42155;53.096;23.226;2022-07-05T02:46:22;100087.31;;;17.46;78.11
56241;BME280;42155;53.096;23.226;2022-07-05T02:48:22;100090.69;;;17.48;77.81
56241;BME280;42155;53.096;23.226;2022-07-05T02:50:22;100086.97;;;17.49;77.84
56241;BME280;42155;53.096;23.226;2022-07-05T02:52:23;100089.16;;;17.53;77.63
56241;BME280;42155;53.096;23.226;2022-07-05T02:54:23;100086.50;;;17.53;77.55
56241;BME280;42155;53.096;23.226;2022-07-05T02:56:24;100075.56;;;17.55;77.60
56241;BME280;42155;53.096;23.226;2022-07-05T02:58:24;100076.41;;;17.55;77.77
56241;BME280;42155;53.096;23.226;2022-07-05T03:00:25;100078.94;;;17.57;77.58
56241;BME280;42155;53.096;23.226;2022-07-05T03:02:25;100080.31;;;17.61;77.88
56241;BME280;42155;53.096;23.226;2022-07-05T03:04:26;100071.41;;;17.52;77.77
56241;BME280;42155;53.096;23.226;2022-07-05T03:06:26;100080.81;;;17.56;77.86
56241;BME280;42155;53.096;23.226;2022-07-05T03:08:27;100089.00;;;17.55;77.87
56241;BME280;42155;53.096;23.226;2022-07-05T03:10:27;100088.34;;;17.53;77.88
56241;BME280;42155;53.096;23.226;2022-07-05T03:12:27;100100.91;;;17.52;78.24
56241;BME280;42155;53.096;23.226;2022-07-05T03:14:28;100099.41;;;17.58;77.96
56241;BME280;42155;53.096;23.226;2022-07-05T03:16:28;100102.75;;;17.60;77.70
56241;BME280;42155;53.096;23.226;2022-07-05T03:18:29;100099.44;;;17.66;77.70
56241;BME280;42155;53.096;23.226;2022-07-05T03:20:29;100102.44;;;17.71;77.50
56241;BME280;42155;53.096;23.226;2022-07-05T03:24:40;100095.78;;;17.75;77.22
56241;BME280;42155;53.096;23.226;2022-07-05T03:26:40;100099.59;;;17.73;77.28
56241;BME280;42155;53.096;23.226;2022-07-05T03:28:41;100085.00;;;17.67;77.55
56241;BME280;42155;53.096;23.226;2022-07-05T03:30:41;100104.81;;;18.07;76.70
56241;BME280;42155;53.096;23.226;2022-07-05T03:32:41;100105.94;;;18.62;75.48
56241;BME280;42155;53.096;23.226;2022-07-05T03:35:14;100109.47;;;20.41;70.67
56241;BME280;42155;53.096;23.226;2022-07-05T03:37:15;100094.31;;;22.29;65.16
56241;BME280;42155;53.096;23.226;2022-07-05T03:39:15;100102.19;;;24.09;59.71
56241;BME280;42155;53.096;23.226;2022-07-05T03:41:16;100105.06;;;25.38;55.58
56241;BME280;42155;53.096;23.226;2022-07-05T03:43:16;100080.81;;;26.32;53.33
56241;BME280;42155;53.096;23.226;2022-07-05T03:45:16;100076.69;;;27.39;50.98
56241;BME280;42155;53.096;23.226;2022-07-05T03:47:17;100071.50;;;28.33;48.86
56241;BME280;42155;53.096;23.226;2022-07-05T03:49:17;100086.72;;;29.57;46.39
56241;BME280;42155;53.096;23.226;2022-07-05T03:51:18;100077.22;;;30.60;43.89
56241;BME280;42155;53.096;23.226;2022-07-05T03:53:18;100082.06;;;31.36;42.07
56241;BME280;42155;53.096;23.226;2022-07-05T03:55:19;100086.13;;;32.47;40.17
56241;BME280;42155;53.096;23.226;2022-07-05T03:57:20;100079.59;;;33.10;38.65
56241;BME280;42155;53.096;23.226;2022-07-05T03:59:21;100090.47;;;33.48;37.42
56241;BME280;42155;53.096;23.226;2022-07-05T04:01:21;100087.22;;;33.66;37.24
56241;BME280;42155;53.096;23.226;2022-07-05T04:03:22;100073.75;;;34.15;35.98
56241;BME280;42155;53.096;23.226;2022-07-05T04:05:22;100077.03;;;34.48;35.50
56241;BME280;42155;53.096;23.226;2022-07-05T04:07:23;100070.66;;;34.68;35.25
56241;BME280;42155;53.096;23.226;2022-07-05T04:09:23;100079.31;;;35.16;33.63
56241;BME280;42155;53.096;23.226;2022-07-05T04:11:24;100072.69;;;35.17;33.63
56241;BME280;42155;53.096;23.226;2022-07-05T04:13:24;100081.00;;;35.61;33.77
56241;BME280;42155;53.096;23.226;2022-07-05T04:15:25;100064.16;;;35.63;33.00
56241;BME280;42155;53.096;23.226;2022-07-05T04:17:25;100079.19;;;35.81;33.36
56241;BME280;42155;53.096;23.226;2022-07-05T04:19:26;100065.75;;;36.08;32.40
56241;BME280;42155;53.096;23.226;2022-07-05T04:21:26;100065.31;;;36.25;31.84
56241;BME280;42155;53.096;23.226;2022-07-05T04:23:26;100071.50;;;36.70;31.71
56241;BME280;42155;53.096;23.226;2022-07-05T04:25:27;100070.38;;;37.76;30.03
56241;BME280;42155;53.096;23.226;2022-07-05T04:27:28;100074.34;;;37.88;29.39
56241;BME280;42155;53.096;23.226;2022-07-05T04:29:28;100071.34;;;37.66;29.08
56241;BME280;42155;53.096;23.226;2022-07-05T04:31:29;100075.41;;;36.93;30.31
56241;BME280;42155;53.096;23.226;2022-07-05T04:33:29;100074.28;;;36.41;30.95
56241;BME280;42155;53.096;23.226;2022-07-05T04:35:29;100073.03;;;36.57;30.95
56241;BME280;42155;53.096;23.226;2022-07-05T04:37:30;100066.06;;;37.51;30.14
56241;BME280;42155;53.096;23.226;2022-07-05T04:39:30;100078.91;;;37.22;29.56
56241;BME280;42155;53.096;23.226;2022-07-05T04:41:31;100079.97;;;36.26;31.44
56241;BME280;42155;53.096;23.226;2022-07-05T04:43:31;100077.91;;;36.36;30.95
56241;BME280;42155;53.096;23.226;2022-07-05T04:45:32;100075.63;;;36.96;30.71
56241;BME280;42155;53.096;23.226;2022-07-05T04:47:32;100068.19;;;37.35;30.07
56241;BME280;42155;53.096;23.226;2022-07-05T04:49:33;100077.72;;;38.04;28.83
56241;BME280;42155;53.096;23.226;2022-07-05T04:51:33;100072.06;;;38.42;29.29
56241;BME280;42155;53.096;23.226;2022-07-05T04:53:34;100077.03;;;36.70;31.02
56241;BME280;42155;53.096;23.226;2022-07-05T04:55:43;100061.41;;;35.13;32.46
56241;BME280;42155;53.096;23.226;2022-07-05T04:57:43;100079.00;;;34.12;34.00
56241;BME280;42155;53.096;23.226;2022-07-05T04:59:44;100085.25;;;33.56;34.56
56241;BME280;42155;53.096;23.226;2022-07-05T05:01:45;100086.75;;;31.62;37.28
56241;BME280;42155;53.096;23.226;2022-07-05T05:03:45;100099.09;;;29.48;41.00
56241;BME280;42155;53.096;23.226;2022-07-05T05:05:46;100085.47;;;28.25;43.69
56241;BME280;42155;53.096;23.226;2022-07-05T05:07:46;100087.94;;;28.03;45.10
56241;BME280;42155;53.096;23.226;2022-07-05T05:09:47;100088.91;;;28.79;44.13
56241;BME280;42155;53.096;23.226;2022-07-05T05:11:47;100088.66;;;29.45;42.80
56241;BME280;42155;53.096;23.226;2022-07-05T05:13:48;100089.88;;;29.65;42.32
56241;BME280;42155;53.096;23.226;2022-07-05T05:15:48;100090.25;;;29.29;43.28
56241;BME280;42155;53.096;23.226;2022-07-05T05:17:49;100094.38;;;29.03;42.66
56241;BME280;42155;53.096;23.226;2022-07-05T05:19:49;100099.97;;;28.37;43.92
56241;BME280;42155;53.096;23.226;2022-07-05T05:21:50;100089.34;;;27.94;45.06
56241;BME280;42155;53.096;23.226;2022-07-05T05:23:50;100097.88;;;27.56;45.51
56241;BME280;42155;53.096;23.226;2022-07-05T05:25:51;100090.13;;;27.04;46.58
56241;BME280;42155;53.096;23.226;2022-07-05T05:27:51;100104.88;;;26.97;46.38
56241;BME280;42155;53.096;23.226;2022-07-05T05:29:52;100104.88;;;26.97;47.39
56241;BME280;42155;53.096;23.226;2022-07-05T05:31:52;100109.50;;;27.14;47.46
56241;BME280;42155;53.096;23.226;2022-07-05T05:33:53;100115.22;;;27.43;47.25
56241;BME280;42155;53.096;23.226;2022-07-05T05:35:53;100048.78;;;27.26;46.65
56241;BME280;42155;53.096;23.226;2022-07-05T05:37:55;100111.00;;;27.77;46.37
56241;BME280;42155;53.096;23.226;2022-07-05T05:39:58;100082.97;;;27.70;46.18
56241;BME280;42155;53.096;23.226;2022-07-05T05:41:59;100103.88;;;27.76;46.17
56241;BME280;42155;53.096;23.226;2022-07-05T05:43:59;100085.75;;;27.52;46.24
56241;BME280;42155;53.096;23.226;2022-07-05T05:46:00;100101.84;;;27.72;47.15
56241;BME280;42155;53.096;23.226;2022-07-05T05:48:01;100094.94;;;27.69;46.54
56241;BME280;42155;53.096;23.226;2022-07-05T05:50:05;100088.44;;;27.70;47.21
56241;BME280;42155;53.096;23.226;2022-07-05T05:52:05;100100.75;;;28.03;46.67
56241;BME280;42155;53.096;23.226;2022-07-05T05:54:06;100093.84;;;28.00;45.59
56241;BME280;42155;53.096;23.226;2022-07-05T05:56:06;100093.72;;;27.83;47.46
56241;BME280;42155;53.096;23.226;2022-07-05T05:58:21;100082.72;;;28.02;47.16
56241;BME280;42155;53.096;23.226;2022-07-05T06:00:22;100077.66;;;28.29;47.06
56241;BME280;42155;53.096;23.226;2022-07-05T06:02:25;100092.72;;;28.31;45.35
56241;BME280;42155;53.096;23.226;2022-07-05T06:04:26;100093.75;;;28.07;45.65
56241;BME280;42155;53.096;23.226;2022-07-05T06:06:26;100096.09;;;27.91;46.07
56241;BME280;42155;53.096;23.226;2022-07-05T06:08:27;100088.75;;;28.04;46.95
56241;BME280;42155;53.096;23.226;2022-07-05T06:10:29;100090.75;;;28.38;46.50
56241;BME280;42155;53.096;23.226;2022-07-05T06:12:30;100091.31;;;28.64;45.50
56241;BME280;42155;53.096;23.226;2022-07-05T06:14:30;100092.34;;;28.86;45.36
56241;BME280;42155;53.096;23.226;2022-07-05T06:16:30;100092.13;;;29.00;44.42
56241;BME280;42155;53.096;23.226;2022-07-05T06:18:31;100105.19;;;28.74;44.21
56241;BME280;42155;53.096;23.226;2022-07-05T06:20:33;100086.81;;;28.46;45.71
56241;BME280;42155;53.096;23.226;2022-07-05T06:22:33;100088.72;;;28.46;45.70
56241;BME280;42155;53.096;23.226;2022-07-05T06:24:34;100110.75;;;28.79;45.89
56241;BME280;42155;53.096;23.226;2022-07-05T06:26:34;100101.72;;;28.90;44.95
56241;BME280;42155;53.096;23.226;2022-07-05T06:28:35;100113.50;;;28.79;45.49
56241;BME280;42155;53.096;23.226;2022-07-05T06:30:37;100113.16;;;28.76;45.53
56241;BME280;42155;53.096;23.226;2022-07-05T06:32:37;100119.34;;;28.48;44.61
56241;BME280;42155;53.096;23.226;2022-07-05T06:34:38;100113.03;;;28.35;46.22
56241;BME280;42155;53.096;23.226;2022-07-05T06:36:38;100137.59;;;28.47;45.05
56241;BME280;42155;53.096;23.226;2022-07-05T06:38:39;100114.94;;;28.58;44.86
56241;BME280;42155;53.096;23.226;2022-07-05T06:40:41;100106.63;;;28.65;45.06
56241;BME280;42155;53.096;23.226;2022-07-05T06:42:42;100116.84;;;28.58;45.77
56241;BME280;42155;53.096;23.226;2022-07-05T06:44:42;100116.47;;;28.78;45.66
56241;BME280;42155;53.096;23.226;2022-07-05T06:46:43;100111.81;;;29.02;44.56
56241;BME280;42155;53.096;23.226;2022-07-05T06:48:43;100101.03;;;28.95;44.18
56241;BME280;42155;53.096;23.226;2022-07-05T06:50:44;100119.31;;;28.95;43.74
56241;BME280;42155;53.096;23.226;2022-07-05T06:52:44;100128.72;;;28.75;44.10
56241;BME280;42155;53.096;23.226;2022-07-05T06:54:45;100123.00;;;28.65;45.15
56241;BME280;42155;53.096;23.226;2022-07-05T06:56:45;100120.53;;;28.75;44.87
56241;BME280;42155;53.096;23.226;2022-07-05T06:58:46;100127.78;;;28.58;45.55
56241;BME280;42155;53.096;23.226;2022-07-05T07:00:46;100137.00;;;28.33;45.70
56241;BME280;42155;53.096;23.226;2022-07-05T07:02:47;100132.88;;;28.01;46.69
56241;BME280;42155;53.096;23.226;2022-07-05T07:04:48;100130.31;;;28.06;47.13
56241;BME280;42155;53.096;23.226;2022-07-05T07:06:49;100135.06;;;28.22;47.44
56241;BME280;42155;53.096;23.226;2022-07-05T07:08:49;100123.72;;;28.49;46.05
56241;BME280;42155;53.096;23.226;2022-07-05T07:10:49;100129.78;;;28.86;45.39
56241;BME280;42155;53.096;23.226;2022-07-05T07:12:50;100112.66;;;28.90;45.29
56241;BME280;42155;53.096;23.226;2022-07-05T07:14:50;100126.97;;;29.21;45.01
56241;BME280;42155;53.096;23.226;2022-07-05T07:16:51;100128.88;;;29.32;44.04
56241;BME280;42155;53.096;23.226;2022-07-05T07:18:52;100126.16;;;29.21;44.26
56241;BME280;42155;53.096;23.226;2022-07-05T07:20:52;100119.50;;;29.28;45.21
56241;BME280;42155;53.096;23.226;2022-07-05T07:22:53;100115.50;;;29.48;44.41
56241;BME280;42155;53.096;23.226;2022-07-05T07:24:53;100069.59;;;29.21;44.13
56241;BME280;42155;53.096;23.226;2022-07-05T07:26:54;100124.63;;;29.53;43.88
56241;BME280;42155;53.096;23.226;2022-07-05T07:28:54;100125.69;;;29.52;44.73
56241;BME280;42155;53.096;23.226;2022-07-05T07:30:55;100130.94;;;29.54;45.38
56241;BME280;42155;53.096;23.226;2022-07-05T07:32:56;100108.22;;;29.53;45.42
56241;BME280;42155;53.096;23.226;2022-07-05T07:34:56;100116.88;;;29.62;43.90
56241;BME280;42155;53.096;23.226;2022-07-05T07:36:57;100124.53;;;29.60;44.57
56241;BME280;42155;53.096;23.226;2022-07-05T07:38:57;100128.34;;;29.76;45.21
56241;BME280;42155;53.096;23.226;2022-07-05T07:40:58;100128.22;;;29.99;44.70
56241;BME280;42155;53.096;23.226;2022-07-05T07:42:58;100118.22;;;30.05;43.81
56241;BME280;42155;53.096;23.226;2022-07-05T07:44:59;100108.03;;;30.17;43.27
56241;BME280;42155;53.096;23.226;2022-07-05T07:46:59;100111.66;;;30.06;42.81
56241;BME280;42155;53.096;23.226;2022-07-05T07:49:00;100108.00;;;29.83;43.50
56241;BME280;42155;53.096;23.226;2022-07-05T07:51:00;100121.09;;;29.81;44.08
56241;BME280;42155;53.096;23.226;2022-07-05T07:53:00;100122.75;;;29.82;44.02
56241;BME280;42155;53.096;23.226;2022-07-05T07:55:01;100118.75;;;29.73;44.11
56241;BME280;42155;53.096;23.226;2022-07-05T07:57:02;100114.25;;;29.67;43.86
56241;BME280;42155;53.096;23.226;2022-07-05T07:59:02;100114.47;;;29.77;43.79
56241;BME280;42155;53.096;23.226;2022-07-05T08:01:03;100123.16;;;29.74;43.44
56241;BME280;42155;53.096;23.226;2022-07-05T08:03:03;100119.53;;;29.57;44.03
56241;BME280;42155;53.096;23.226;2022-07-05T08:05:06;100123.13;;;29.46;44.46
56241;BME280;42155;53.096;23.226;2022-07-05T08:07:06;100109.72;;;29.32;45.41
56241;BME280;42155;53.096;23.226;2022-07-05T08:09:07;100122.47;;;29.27;44.94
56241;BME280;42155;53.096;23.226;2022-07-05T08:11:09;100115.09;;;29.27;45.06
56241;BME280;42155;53.096;23.226;2022-07-05T08:13:09;100104.38;;;29.37;44.80
56241;BME280;42155;53.096;23.226;2022-07-05T08:15:10;100057.09;;;29.25;44.98
56241;BME280;42155;53.096;23.226;2022-07-05T08:17:11;100116.31;;;29.60;45.35
56241;BME280;42155;53.096;23.226;2022-07-05T08:19:11;100099.81;;;29.55;45.64
56241;BME280;42155;53.096;23.226;2022-07-05T08:21:13;100091.97;;;29.75;44.14
56241;BME280;42155;53.096;23.226;2022-07-05T08:23:17;100102.13;;;29.91;44.27
56241;BME280;42155;53.096;23.226;2022-07-05T08:25:17;100103.50;;;29.94;44.24
56241;BME280;42155;53.096;23.226;2022-07-05T08:27:18;100091.41;;;29.90;44.39
56241;BME280;42155;53.096;23.226;2022-07-05T08:29:19;100102.03;;;30.03;43.67
56241;BME280;42155;53.096;23.226;2022-07-05T08:31:20;100097.81;;;29.96;43.34
56241;BME280;42155;53.096;23.226;2022-07-05T08:33:21;100097.38;;;30.04;43.79
56241;BME280;42155;53.096;23.226;2022-07-05T08:35:22;100099.59;;;30.18;43.25
56241;BME280;42155;53.096;23.226;2022-07-05T08:37:22;100097.91;;;30.01;43.93
56241;BME280;42155;53.096;23.226;2022-07-05T08:39:23;100096.63;;;30.08;44.48
56241;BME280;42155;53.096;23.226;2022-07-05T08:41:23;100101.63;;;30.11;43.74
56241;BME280;42155;53.096;23.226;2022-07-05T08:43:25;100104.13;;;29.96;44.35
56241;BME280;42155;53.096;23.226;2022-07-05T08:45:28;100110.25;;;29.86;44.35
56241;BME280;42155;53.096;23.226;2022-07-05T08:47:31;100105.34;;;29.88;44.55
56241;BME280;42155;53.096;23.226;2022-07-05T08:49:32;100104.94;;;29.97;45.13
56241;BME280;42155;53.096;23.226;2022-07-05T08:51:37;100103.53;;;30.11;44.88
56241;BME280;42155;53.096;23.226;2022-07-05T08:53:40;100108.41;;;30.09;44.80
56241;BME280;42155;53.096;23.226;2022-07-05T08:55:41;100109.84;;;30.11;45.35
56241;BME280;42155;53.096;23.226;2022-07-05T08:57:42;100118.66;;;30.13;43.90
56241;BME280;42155;53.096;23.226;2022-07-05T08:59:43;100117.63;;;30.03;43.04
56241;BME280;42155;53.096;23.226;2022-07-05T09:01:45;100090.75;;;29.83;44.00
56241;BME280;42155;53.096;23.226;2022-07-05T09:03:48;100119.50;;;30.14;44.39
56241;BME280;42155;53.096;23.226;2022-07-05T09:05:50;100115.28;;;30.23;43.55
56241;BME280;42155;53.096;23.226;2022-07-05T09:07:58;100117.34;;;30.16;42.82
56241;BME280;42155;53.096;23.226;2022-07-05T09:10:02;100104.22;;;30.18;43.20
56241;BME280;42155;53.096;23.226;2022-07-05T09:12:03;100072.09;;;29.97;42.97
56241;BME280;42155;53.096;23.226;2022-07-05T09:14:19;100109.22;;;30.21;43.45
56241;BME280;42155;53.096;23.226;2022-07-05T09:16:20;100121.25;;;30.20;44.00
56241;BME280;42155;53.096;23.226;2022-07-05T09:18:43;100119.06;;;30.05;43.66
56241;BME280;42155;53.096;23.226;2022-07-05T09:20:43;100123.41;;;29.89;44.07
56241;BME280;42155;53.096;23.226;2022-07-05T09:22:56;100132.44;;;29.73;43.59
56241;BME280;42155;53.096;23.226;2022-07-05T09:24:57;100125.09;;;29.62;44.29
56241;BME280;42155;53.096;23.226;2022-07-05T09:27:12;100106.00;;;29.38;44.90
56241;BME280;42155;53.096;23.226;2022-07-05T09:29:15;100116.81;;;29.45;44.31
56241;BME280;42155;53.096;23.226;2022-07-05T09:31:29;100123.59;;;29.42;44.53
56241;BME280;42155;53.096;23.226;2022-07-05T09:33:30;100120.78;;;29.37;44.75
56241;BME280;42155;53.096;23.226;2022-07-05T09:35:39;100127.41;;;29.41;44.53
56241;BME280;42155;53.096;23.226;2022-07-05T09:37:43;100112.31;;;29.39;44.42
56241;BME280;42155;53.096;23.226;2022-07-05T09:39:44;100113.00;;;29.46;44.13
56241;BME280;42155;53.096;23.226;2022-07-05T09:41:45;100114.84;;;29.69;43.65
56241;BME280;42155;53.096;23.226;2022-07-05T09:43:45;100119.75;;;29.84;43.17
56241;BME280;42155;53.096;23.226;2022-07-05T09:47:59;100117.59;;;29.69;43.51
56241;BME280;42155;53.096;23.226;2022-07-05T09:50:00;100120.88;;;29.71;43.59
56241;BME280;42155;53.096;23.226;2022-07-05T09:52:00;100119.09;;;29.77;43.93
56241;BME280;42155;53.096;23.226;2022-07-05T09:54:01;100129.06;;;29.83;44.04
56241;BME280;42155;53.096;23.226;2022-07-05T09:56:03;100117.59;;;29.69;43.88
56241;BME280;42155;53.096;23.226;2022-07-05T09:58:04;100104.63;;;29.24;44.94
56241;BME280;42155;53.096;23.226;2022-07-05T10:02:12;100116.63;;;28.48;46.19
56241;BME280;42155;53.096;23.226;2022-07-05T10:04:13;100102.31;;;28.22;46.35
56241;BME280;42155;53.096;23.226;2022-07-05T10:06:13;100116.56;;;28.24;46.57
56241;BME280;42155;53.096;23.226;2022-07-05T10:08:16;100111.44;;;28.16;46.47
56241;BME280;42155;53.096;23.226;2022-07-05T10:10:20;100112.88;;;28.30;46.60
56241;BME280;42155;53.096;23.226;2022-07-05T10:12:21;100109.84;;;28.62;46.93
56241;BME280;42155;53.096;23.226;2022-07-05T10:14:22;100123.84;;;28.77;45.58
56241;BME280;42155;53.096;23.226;2022-07-05T10:16:23;100116.13;;;28.74;45.02
56241;BME280;42155;53.096;23.226;2022-07-05T10:18:25;100115.16;;;28.68;45.54
56241;BME280;42155;53.096;23.226;2022-07-05T10:20:44;100123.72;;;28.72;46.94
56241;BME280;42155;53.096;23.226;2022-07-05T10:23:05;100117.94;;;28.57;46.19
56241;BME280;42155;53.096;23.226;2022-07-05T10:25:07;100118.13;;;28.55;46.23
56241;BME280;42155;53.096;23.226;2022-07-05T10:27:07;100126.81;;;28.64;45.13
56241;BME280;42155;53.096;23.226;2022-07-05T10:29:09;100118.50;;;28.59;45.58
56241;BME280;42155;53.096;23.226;2022-07-05T10:31:11;100113.03;;;28.59;45.38
56241;BME280;42155;53.096;23.226;2022-07-05T10:33:13;100100.81;;;28.50;44.69